createdAt,value
2022-09-15T00:01:21.873Z,15.33
2022-09-15T00:03:53.001Z,15.87
2022-09-15T00:06:21.824Z,15.40
2022-09-15T00:08:51.859Z,15.59
2022-09-15T00:11:22.715Z,15.28
2022-09-15T00:13:52.464Z,15.24
2022-09-15T00:16:23.492Z,14.91
2022-09-15T00:18:53.609Z,15.24
2022-09-15T00:21:23.630Z,15.30
2022-09-15T00:23:52.448Z,15.42
2022-09-15T00:26:22.259Z,15.87
2022-09-15T00:28:51.236Z,15.72
2022-09-15T00:31:22.471Z,15.61
2022-09-15T00:33:56.320Z,15.31
2022-09-15T00:36:26.931Z,14.77
2022-09-15T00:38:55.822Z,15.35
2022-09-15T00:41:25.439Z,15.64
2022-09-15T00:43:56.645Z,15.59
2022-09-15T00:46:27.147Z,15.41
2022-09-15T00:49:01.132Z,15.64
2022-09-15T00:51:35.255Z,15.66
2022-09-15T00:54:08.295Z,15.27
2022-09-15T00:56:39.916Z,15.01
2022-09-15T00:59:18.277Z,15.20
2022-09-15T01:01:48.422Z,15.46
2022-09-15T01:04:18.485Z,15.49
2022-09-15T01:06:51.379Z,15.33
2022-09-15T01:09:23.689Z,15.39
2022-09-15T01:11:52.555Z,15.70
2022-09-15T01:14:21.021Z,15.14
2022-09-15T01:17:02.626Z,15.28
2022-09-15T01:20:09.110Z,14.87
2022-09-15T01:22:49.032Z,15.40
2022-09-15T01:25:35.889Z,15.33
2022-09-15T01:28:37.626Z,15.47
2022-09-15T01:31:12.180Z,15.11
2022-09-15T01:33:46.393Z,15.12
2022-09-15T01:36:21.367Z,15.09
2022-09-15T01:39:01.161Z,15.49
2022-09-15T01:41:38.579Z,15.25
2022-09-15T01:44:10.313Z,15.25
2022-09-15T01:46:47.294Z,15.19
2022-09-15T01:49:21.328Z,15.46
2022-09-15T01:51:52.962Z,14.98
2022-09-15T01:54:23.484Z,15.30
2022-09-15T01:56:52.120Z,14.86
2022-09-15T01:59:23.265Z,15.57
2022-09-15T02:02:00.233Z,15.76
2022-09-15T02:04:34.539Z,15.66
2022-09-15T02:07:12.264Z,15.53
2022-09-15T02:09:46.966Z,15.23
2022-09-15T02:12:22.179Z,15.39
2022-09-15T02:14:58.191Z,15.41
2022-09-15T02:17:32.735Z,15.22
2022-09-15T02:20:10.433Z,15.38
2022-09-15T02:22:41.018Z,15.55
2022-09-15T02:25:12.850Z,15.59
2022-09-15T02:27:45.917Z,15.44
2022-09-15T02:30:17.285Z,15.39
2022-09-15T02:32:54.540Z,15.16
2022-09-15T02:35:25.259Z,15.22
2022-09-15T02:37:54.489Z,15.48
2022-09-15T02:40:23.913Z,15.34
2022-09-15T02:42:56.978Z,14.96
2022-09-15T02:45:31.706Z,15.05
2022-09-15T02:48:01.752Z,14.71
2022-09-15T02:50:31.176Z,14.96
2022-09-15T02:52:59.685Z,15.00
2022-09-15T02:55:29.259Z,15.11
2022-09-15T02:57:57.794Z,15.34
2022-09-15T03:00:26.963Z,15.62
2022-09-15T03:02:56.364Z,15.68
2022-09-15T03:05:28.137Z,15.41
2022-09-15T03:07:58.024Z,15.64
2022-09-15T03:10:29.865Z,15.63
2022-09-15T03:12:58.589Z,15.70
2022-09-15T03:15:28.184Z,15.67
2022-09-15T03:17:58.348Z,15.46
2022-09-15T03:20:30.455Z,15.64
2022-09-15T03:22:59.156Z,15.66
2022-09-15T03:25:28.120Z,15.41
2022-09-15T03:27:56.601Z,15.44
2022-09-15T03:30:25.252Z,15.55
2022-09-15T03:32:53.744Z,15.47
2022-09-15T03:35:22.897Z,15.50
2022-09-15T03:37:53.325Z,15.75
2022-09-15T03:40:21.957Z,15.70
2022-09-15T03:42:50.462Z,15.80
2022-09-15T03:45:19.133Z,15.29
2022-09-15T03:47:47.577Z,15.41
2022-09-15T03:50:17.371Z,15.66
2022-09-15T03:52:46.660Z,15.79
2022-09-15T03:55:18.293Z,15.61
2022-09-15T03:57:46.858Z,15.49
2022-09-15T04:00:16.303Z,15.66
2022-09-15T04:02:44.735Z,16.09
2022-09-15T04:05:14.019Z,16.31
2022-09-15T04:07:42.893Z,16.40
2022-09-15T04:10:11.539Z,17.14
2022-09-15T04:12:41.495Z,16.55
2022-09-15T04:15:10.965Z,16.49
2022-09-15T04:17:39.687Z,16.30
2022-09-15T04:20:09.442Z,15.64
2022-09-15T04:22:38.170Z,15.22
2022-09-15T04:25:07.561Z,15.34
2022-09-15T04:27:36.561Z,15.94
2022-09-15T04:30:10.809Z,15.62
2022-09-15T04:32:39.910Z,15.96
2022-09-15T04:35:08.700Z,16.43
2022-09-15T04:37:37.248Z,16.10
2022-09-15T04:40:06.329Z,15.58
2022-09-15T04:42:34.864Z,15.52
2022-09-15T04:45:03.469Z,15.04
2022-09-15T04:47:33.466Z,15.62
2022-09-15T04:50:02.010Z,15.65
2022-09-15T04:52:32.539Z,15.69
2022-09-15T04:55:01.066Z,15.58
2022-09-15T04:57:29.574Z,15.77
2022-09-15T04:59:58.183Z,15.32
2022-09-15T05:02:27.777Z,15.49
2022-09-15T05:04:57.835Z,15.66
2022-09-15T05:07:26.578Z,15.54
2022-09-15T05:09:55.186Z,14.75
2022-09-15T05:12:23.722Z,15.17
2022-09-15T05:14:52.346Z,15.20
2022-09-15T05:17:24.065Z,15.69
2022-09-15T05:19:57.563Z,16.10
2022-09-15T05:22:27.824Z,16.37
2022-09-15T05:25:06.202Z,16.08
2022-09-15T05:30:42.471Z,16.43
2022-09-15T05:34:27.185Z,16.71
2022-09-15T05:36:58.124Z,16.36
2022-09-15T05:39:55.755Z,16.87
2022-09-15T05:42:24.620Z,16.55
2022-09-15T05:44:53.101Z,16.69
2022-09-15T05:47:21.613Z,16.43
2022-09-15T05:49:50.030Z,16.43
2022-09-15T05:52:18.525Z,16.85
2022-09-15T05:54:48.433Z,16.07
2022-09-15T05:57:17.105Z,15.56
2022-09-15T05:59:45.883Z,16.16
2022-09-15T06:02:14.188Z,17.22
2022-09-15T06:04:43.141Z,16.70
2022-09-15T06:07:11.787Z,17.12
2022-09-15T06:09:40.309Z,17.26
2022-09-15T06:12:10.349Z,17.08
2022-09-15T06:14:38.921Z,17.31
2022-09-15T06:17:07.368Z,16.87
2022-09-15T06:19:36.026Z,17.10
2022-09-15T06:22:04.500Z,17.20
2022-09-15T06:24:33.154Z,16.97
2022-09-15T06:27:03.532Z,16.95
2022-09-15T06:29:33.745Z,17.17
2022-09-15T06:32:03.001Z,17.65
2022-09-15T06:34:32.863Z,17.97
2022-09-15T06:37:05.327Z,18.02
2022-09-15T06:39:35.055Z,17.33
2022-09-15T06:42:05.713Z,17.93
2022-09-15T06:44:38.022Z,17.92
2022-09-15T06:47:07.407Z,17.90
2022-09-15T06:49:38.513Z,17.18
2022-09-15T06:52:07.477Z,17.32
2022-09-15T06:54:37.797Z,18.22
2022-09-15T06:57:06.517Z,17.79
2022-09-15T06:59:34.975Z,17.94
2022-09-15T07:02:05.497Z,18.71
2022-09-15T07:04:37.035Z,18.89
2022-09-15T07:07:06.397Z,18.52
2022-09-15T07:09:35.555Z,17.89
2022-09-15T07:12:04.900Z,16.31
2022-09-15T07:14:33.274Z,16.50
2022-09-15T07:17:01.830Z,16.32
2022-09-15T07:19:31.675Z,16.40
2022-09-15T07:22:00.345Z,16.41
2022-09-15T07:24:28.733Z,15.99
2022-09-15T07:26:57.303Z,15.82
2022-09-15T07:29:25.811Z,15.86
2022-09-15T07:31:54.564Z,16.44
2022-09-15T07:34:23.072Z,16.84
2022-09-15T07:36:52.973Z,17.66
2022-09-15T07:39:21.557Z,17.35
2022-09-15T07:41:50.397Z,17.26
2022-09-15T07:44:18.628Z,17.05
2022-09-15T07:46:47.085Z,16.90
2022-09-15T07:49:15.747Z,16.90
2022-09-15T07:51:44.367Z,17.12
2022-09-15T07:54:17.193Z,16.40
2022-09-15T07:56:47.921Z,16.83
2022-09-15T07:59:16.555Z,17.20
2022-09-15T08:01:45.116Z,16.85
2022-09-15T08:04:13.664Z,16.98
2022-09-15T08:06:42.270Z,16.64
2022-09-15T08:09:14.739Z,16.36
2022-09-15T08:11:44.707Z,16.76
2022-09-15T08:14:13.239Z,17.18
2022-09-15T08:16:41.922Z,16.83
2022-09-15T08:19:10.203Z,16.90
2022-09-15T08:21:38.704Z,16.96
2022-09-15T08:24:07.327Z,18.20
2022-09-15T08:26:38.489Z,17.84
2022-09-15T08:29:08.662Z,18.06
2022-09-15T08:31:37.337Z,18.24
2022-09-15T08:34:07.070Z,18.23
2022-09-15T08:36:35.780Z,17.68
2022-09-15T08:39:04.820Z,17.63
2022-09-15T08:41:36.767Z,18.63
2022-09-15T08:44:19.921Z,18.93
2022-09-15T08:46:53.918Z,18.08
2022-09-15T08:49:49.972Z,18.81
2022-09-15T08:52:22.733Z,17.69
2022-09-15T08:54:54.812Z,17.60
2022-09-15T08:57:26.011Z,17.42
2022-09-15T08:59:56.214Z,17.35
2022-09-15T09:02:58.331Z,17.94
2022-09-15T09:05:40.768Z,17.61
2022-09-15T09:08:32.511Z,17.44
2022-09-15T09:11:11.132Z,17.26
2022-09-15T09:13:48.784Z,17.04
2022-09-15T09:16:39.539Z,16.92
2022-09-15T09:19:33.901Z,16.98
2022-09-15T09:22:08.333Z,17.00
2022-09-15T09:24:42.543Z,17.06
2022-09-15T09:27:15.151Z,17.12
2022-09-15T09:29:51.577Z,17.15
2022-09-15T09:32:25.884Z,16.97
2022-09-15T09:35:02.353Z,17.08
2022-09-15T09:37:32.531Z,16.76
2022-09-15T09:40:01.663Z,16.75
2022-09-15T09:42:37.285Z,16.85
2022-09-15T09:45:07.686Z,17.20
2022-09-15T09:47:38.902Z,17.10
2022-09-15T09:50:36.157Z,17.59
2022-09-15T09:53:20.722Z,17.02
2022-09-15T09:55:49.319Z,16.99
2022-09-15T09:58:21.005Z,17.23
2022-09-15T10:00:50.365Z,16.92
2022-09-15T10:03:22.121Z,17.02
2022-09-15T10:06:03.825Z,16.90
2022-09-15T10:08:32.456Z,17.13
2022-09-15T10:11:06.352Z,17.27
2022-09-15T10:13:36.897Z,17.38
2022-09-15T10:16:07.927Z,17.67
2022-09-15T10:18:40.131Z,17.70
2022-09-15T10:21:11.365Z,17.69
2022-09-15T10:23:40.079Z,17.77
2022-09-15T10:26:24.018Z,17.89
2022-09-15T10:29:13.819Z,18.22
2022-09-15T10:31:44.664Z,18.20
2022-09-15T10:34:30.589Z,17.98
2022-09-15T10:37:09.699Z,18.11
2022-09-15T10:39:58.848Z,17.68
2022-09-15T10:42:42.219Z,17.97
2022-09-15T10:45:20.366Z,17.84
2022-09-15T10:48:03.376Z,18.04
2022-09-15T10:50:43.478Z,18.09
2022-09-15T10:53:18.487Z,18.16
2022-09-15T10:55:58.444Z,17.92
2022-09-15T10:58:49.753Z,18.06
2022-09-15T11:01:33.585Z,18.13
2022-09-15T11:04:20.304Z,17.79
2022-09-15T11:06:55.888Z,17.75
2022-09-15T11:09:27.283Z,17.76
2022-09-15T11:12:12.375Z,18.06
2022-09-15T11:14:51.832Z,17.87
2022-09-15T11:17:40.139Z,18.10
2022-09-15T11:20:26.183Z,18.23
2022-09-15T11:23:04.008Z,18.13
2022-09-15T11:25:36.690Z,18.05
2022-09-15T11:28:12.937Z,18.27
2022-09-15T11:30:47.869Z,18.23
2022-09-15T11:33:22.497Z,18.41
2022-09-15T11:35:56.998Z,18.62
2022-09-15T11:38:35.755Z,18.96
2022-09-15T11:41:19.910Z,19.14
2022-09-15T11:44:08.505Z,18.72
2022-09-15T11:46:51.959Z,18.06
2022-09-15T11:49:24.765Z,18.15
2022-09-15T11:52:01.747Z,17.99
2022-09-15T11:54:38.936Z,18.75
2022-09-15T11:57:17.378Z,18.94
2022-09-15T11:59:52.710Z,18.56
2022-09-15T12:02:27.356Z,18.23
2022-09-15T12:05:06.698Z,17.84
2022-09-15T12:07:40.478Z,18.04
2022-09-15T12:10:19.258Z,17.93
2022-09-15T12:12:48.540Z,17.86
2022-09-15T12:15:20.033Z,17.93
2022-09-15T12:17:54.977Z,17.65
2022-09-15T12:20:26.977Z,17.67
2022-09-15T12:23:03.857Z,17.56
2022-09-15T12:25:43.480Z,17.30
2022-09-15T12:28:38.814Z,17.63
2022-09-15T12:31:25.330Z,17.12
2022-09-15T12:33:59.246Z,17.00
2022-09-15T12:36:46.547Z,16.94
2022-09-15T12:39:31.636Z,17.36
2022-09-15T12:42:23.368Z,16.97
2022-09-15T12:44:55.919Z,17.12
2022-09-15T12:47:39.342Z,17.13
2022-09-15T12:50:25.292Z,17.06
2022-09-15T12:52:58.228Z,16.70
2022-09-15T12:55:29.043Z,16.66
2022-09-15T12:58:01.406Z,16.71
2022-09-15T13:00:45.573Z,16.54
2022-09-15T13:04:23.129Z,16.86
2022-09-15T13:07:24.790Z,17.30
2022-09-15T13:10:02.366Z,17.20
2022-09-15T13:12:37.120Z,17.26
2022-09-15T13:15:13.662Z,17.00
2022-09-15T13:17:45.739Z,17.40
2022-09-15T13:20:23.387Z,17.19
2022-09-15T13:22:56.571Z,17.13
2022-09-15T13:25:29.522Z,17.14
2022-09-15T13:28:00.911Z,17.16
2022-09-15T13:30:45.821Z,17.20
2022-09-15T13:39:37.087Z,17.09
2022-09-15T13:42:25.029Z,16.85
2022-09-15T13:45:29.551Z,16.63
2022-09-15T13:48:23.269Z,16.54
2022-09-15T13:50:59.682Z,16.67
2022-09-15T13:53:45.590Z,16.60
2022-09-15T13:56:20.710Z,16.28
2022-09-15T13:59:01.598Z,16.66
2022-09-15T14:01:39.022Z,16.80
2022-09-15T14:04:13.418Z,16.96
2022-09-15T14:06:44.524Z,16.54
2022-09-15T14:09:17.119Z,16.60
2022-09-15T14:11:50.185Z,16.63
2022-09-15T14:14:35.709Z,16.60
2022-09-15T14:17:04.346Z,16.72
2022-09-15T14:19:36.817Z,16.70
2022-09-15T14:22:26.229Z,16.79
2022-09-15T14:24:56.178Z,16.63
2022-09-15T14:27:27.442Z,16.80
2022-09-15T14:29:57.990Z,16.79
2022-09-15T14:32:29.901Z,16.88
2022-09-15T14:35:20.634Z,17.01
2022-09-15T14:37:58.770Z,17.35
2022-09-15T14:40:31.056Z,16.94
2022-09-15T14:42:59.788Z,16.60
2022-09-15T14:48:30.168Z,16.41
2022-09-15T14:51:08.265Z,16.15
2022-09-15T14:53:43.828Z,16.20
2022-09-15T14:56:21.023Z,16.41
2022-09-15T14:58:54.078Z,16.39
2022-09-15T15:01:27.271Z,16.41
2022-09-15T15:04:10.396Z,16.35
2022-09-15T15:06:52.424Z,16.33
2022-09-15T15:09:26.122Z,16.18
2022-09-15T15:11:58.199Z,15.99
2022-09-15T15:14:27.348Z,16.03
2022-09-15T15:17:03.293Z,16.13
2022-09-15T15:19:34.015Z,16.42
2022-09-15T15:22:22.234Z,16.20
2022-09-15T15:24:53.384Z,16.00
2022-09-15T15:27:40.672Z,15.99
2022-09-15T15:30:36.206Z,15.96
2022-09-15T15:33:06.645Z,15.95
2022-09-15T15:35:40.431Z,15.75
2022-09-15T15:38:25.400Z,15.80
2022-09-15T15:41:01.538Z,16.17
2022-09-15T15:43:36.913Z,15.91
2022-09-15T15:46:07.739Z,15.68
2022-09-15T15:48:38.615Z,15.69
2022-09-15T15:51:11.188Z,15.52
2022-09-15T15:53:41.143Z,15.50
2022-09-15T15:56:09.769Z,15.38
2022-09-15T15:58:38.208Z,15.67
2022-09-15T16:01:06.788Z,15.68
2022-09-15T16:03:35.513Z,15.64
2022-09-15T16:06:04.293Z,15.64
2022-09-15T16:08:34.952Z,15.66
2022-09-15T16:11:05.918Z,15.70
2022-09-15T16:13:34.479Z,15.35
2022-09-15T16:16:03.590Z,15.02
2022-09-15T16:18:32.144Z,15.43
2022-09-15T16:21:00.742Z,15.29
2022-09-15T16:23:29.343Z,15.16
2022-09-15T16:26:01.556Z,15.10
2022-09-15T16:28:31.817Z,14.98
2022-09-15T16:31:01.074Z,15.05
2022-09-15T16:33:31.001Z,15.33
2022-09-15T16:36:06.926Z,15.12
2022-09-15T16:38:37.387Z,15.21
2022-09-15T16:41:13.570Z,15.19
2022-09-15T16:43:44.128Z,15.36
2022-09-15T16:46:14.347Z,15.25
2022-09-15T16:48:47.349Z,15.26
2022-09-15T16:51:27.922Z,15.07
2022-09-15T16:53:59.372Z,15.21
2022-09-15T16:56:28.415Z,15.60
2022-09-15T16:59:01.451Z,15.47
2022-09-15T17:01:30.351Z,15.45
2022-09-15T17:03:58.981Z,16.11
2022-09-15T17:06:31.211Z,15.44
2022-09-15T17:08:59.943Z,15.19
2022-09-15T17:11:30.676Z,15.01
2022-09-15T17:14:03.253Z,15.14
2022-09-15T17:16:32.354Z,15.32
2022-09-15T17:19:03.241Z,15.36
2022-09-15T17:21:31.787Z,15.52
2022-09-15T17:24:00.536Z,14.96
2022-09-15T17:26:32.009Z,14.96
2022-09-15T17:29:05.396Z,14.80
2022-09-15T17:31:34.664Z,14.16
2022-09-15T17:34:06.398Z,14.36
2022-09-15T17:36:37.475Z,14.35
2022-09-15T17:39:08.750Z,14.31
2022-09-15T17:41:41.851Z,14.43
2022-09-15T17:44:14.104Z,14.35
2022-09-15T17:46:43.669Z,14.49
2022-09-15T17:49:12.947Z,14.38
2022-09-15T17:51:47.054Z,14.56
2022-09-15T17:54:16.377Z,14.46
2022-09-15T17:56:45.418Z,13.89
2022-09-15T17:59:16.454Z,14.09
2022-09-15T18:01:45.813Z,13.90
2022-09-15T18:04:15.143Z,13.71
2022-09-15T18:06:49.816Z,13.78
2022-09-15T18:09:19.451Z,13.44
2022-09-15T18:11:49.257Z,13.81
2022-09-15T18:14:20.184Z,13.62
2022-09-15T18:16:49.660Z,13.51
2022-09-15T18:19:18.829Z,13.34
2022-09-15T18:21:53.215Z,13.70
2022-09-15T18:24:22.739Z,13.65
2022-09-15T18:26:52.606Z,13.76
2022-09-15T18:29:23.334Z,13.43
2022-09-15T18:31:53.171Z,13.38
2022-09-15T18:34:22.564Z,13.18
2022-09-15T18:36:51.689Z,13.37
2022-09-15T18:39:20.823Z,13.12
2022-09-15T18:41:50.178Z,13.60
2022-09-15T18:44:19.410Z,13.45
2022-09-15T18:46:50.044Z,13.55
2022-09-15T18:49:19.329Z,13.61
2022-09-15T18:51:51.468Z,13.72
2022-09-15T18:54:21.394Z,13.79
2022-09-15T18:56:51.589Z,13.69
2022-09-15T18:59:20.651Z,13.71
2022-09-15T19:01:53.392Z,13.59
2022-09-15T19:04:22.383Z,13.63
2022-09-15T19:06:51.060Z,14.08
2022-09-15T19:09:20.067Z,13.56
2022-09-15T19:11:48.825Z,13.99
2022-09-15T19:14:19.231Z,14.18
2022-09-15T19:16:58.050Z,14.33
2022-09-15T19:19:27.244Z,14.37
2022-09-15T19:21:55.815Z,14.25
2022-09-15T19:24:26.627Z,14.14
2022-09-15T19:26:55.199Z,14.25
2022-09-15T19:29:23.799Z,13.67
2022-09-15T19:31:53.646Z,13.10
2022-09-15T19:34:22.460Z,13.15
2022-09-15T19:36:50.985Z,13.01
2022-09-15T19:39:19.555Z,13.01
2022-09-15T19:41:48.100Z,12.82
2022-09-15T19:44:17.197Z,12.79
2022-09-15T19:46:46.037Z,12.95
2022-09-15T19:49:16.132Z,12.94
2022-09-15T19:51:44.957Z,12.66
2022-09-15T19:54:13.519Z,12.57
2022-09-15T19:56:41.971Z,12.61
2022-09-15T19:59:11.322Z,12.54
2022-09-15T20:01:39.787Z,12.62
2022-09-15T20:04:08.437Z,12.70
2022-09-15T20:06:38.543Z,12.69
2022-09-15T20:09:08.847Z,12.93
2022-09-15T20:11:37.713Z,12.86
2022-09-15T20:14:07.022Z,13.26
2022-09-15T20:16:38.687Z,12.74
2022-09-15T20:19:07.447Z,12.34
2022-09-15T20:21:49.870Z,12.29
2022-09-15T20:24:20.399Z,12.37
2022-09-15T20:26:49.575Z,12.33
2022-09-15T20:29:18.800Z,12.28
2022-09-15T20:31:47.533Z,12.23
2022-09-15T20:34:16.020Z,12.05
2022-09-15T20:36:45.946Z,12.01
2022-09-15T20:39:16.132Z,11.67
2022-09-15T20:41:45.902Z,11.83
2022-09-15T20:44:14.588Z,11.80
2022-09-15T20:46:50.670Z,11.74
2022-09-15T20:49:19.118Z,11.65
2022-09-15T20:51:51.661Z,11.42
2022-09-15T20:54:20.266Z,11.66
2022-09-15T20:56:48.685Z,11.43
2022-09-15T20:59:17.240Z,11.64
2022-09-15T21:01:46.567Z,11.59
2022-09-15T21:04:14.975Z,11.55
2022-09-15T21:06:45.534Z,11.58
2022-09-15T21:09:15.865Z,11.69
2022-09-15T21:11:44.553Z,11.75
2022-09-15T21:14:14.428Z,11.59
2022-09-15T21:16:45.729Z,11.31
2022-09-15T21:19:14.307Z,11.32
2022-09-15T21:21:42.875Z,11.00
2022-09-15T21:24:11.862Z,11.11
2022-09-15T21:26:56.753Z,11.00
2022-09-15T21:29:25.707Z,11.27
2022-09-15T21:31:54.152Z,11.69
2022-09-15T21:34:28.180Z,11.64
2022-09-15T21:36:59.109Z,11.49
2022-09-15T21:39:27.726Z,11.31
2022-09-15T21:42:05.398Z,11.77
2022-09-15T21:44:34.004Z,11.26
2022-09-15T21:47:05.101Z,11.39
2022-09-15T21:49:33.736Z,11.66
2022-09-15T21:52:02.262Z,11.87
2022-09-15T21:54:31.583Z,11.96
2022-09-15T21:57:01.404Z,11.56
2022-09-15T21:59:30.045Z,11.32
2022-09-15T22:01:58.553Z,11.21
2022-09-15T22:04:26.985Z,11.02
2022-09-15T22:06:55.494Z,10.90
2022-09-15T22:09:24.003Z,10.94
2022-09-15T22:11:52.468Z,10.54
2022-09-15T22:14:22.711Z,10.71
2022-09-15T22:16:51.338Z,10.58
2022-09-15T22:19:22.961Z,10.96
2022-09-15T22:21:55.438Z,10.77
2022-09-15T22:24:24.174Z,10.55
2022-09-15T22:26:52.636Z,10.88
2022-09-15T22:29:22.686Z,10.84
2022-09-15T22:31:51.257Z,11.20
2022-09-15T22:34:19.834Z,10.98
2022-09-15T22:36:48.405Z,10.72
2022-09-15T22:39:16.783Z,10.95
2022-09-15T22:41:45.251Z,10.59
2022-09-15T22:44:19.913Z,10.51
2022-09-15T22:46:51.493Z,10.52
2022-09-15T22:49:20.039Z,10.61
2022-09-15T22:51:48.471Z,10.95
2022-09-15T22:54:17.025Z,11.22
2022-09-15T22:56:47.306Z,11.09
2022-09-15T22:59:17.189Z,11.13
2022-09-15T23:01:45.875Z,11.07
2022-09-15T23:04:16.081Z,11.05
2022-09-15T23:06:44.606Z,10.95
2022-09-15T23:09:13.472Z,10.88
2022-09-15T23:11:42.002Z,11.09
2022-09-15T23:14:15.169Z,11.11
2022-09-15T23:16:44.420Z,11.43
2022-09-15T23:19:13.687Z,11.27
2022-09-15T23:21:43.764Z,11.34
2022-09-15T23:24:14.156Z,11.50
2022-09-15T23:26:42.784Z,11.32
2022-09-15T23:29:11.352Z,11.42
2022-09-15T23:31:39.980Z,11.35
2022-09-15T23:34:08.537Z,11.09
2022-09-15T23:36:37.095Z,11.12
2022-09-15T23:39:09.109Z,11.23
2022-09-15T23:41:39.159Z,10.95
2022-09-15T23:44:07.767Z,11.08
2022-09-15T23:46:36.238Z,11.02
2022-09-15T23:49:05.260Z,11.02
2022-09-15T23:51:33.617Z,11.03
2022-09-15T23:54:03.879Z,10.75
2022-09-15T23:56:34.038Z,10.68
2022-09-15T23:59:04.670Z,10.87
